Flight Track Log - Related Links

Times and Time Zones

All times are in EDT time to prevent confusion due to time zone crossing. See the LRC691 flight status page for this flight to view local times or setup timezone preferences in your user account.

Time Position Orientation Groundspeed Altitude Reporting Facility
EDT Latitude Longitude Course Direction KTS MPH feet Rate Location/Type
Mon 08:59:01 AM 25.7772 -80.2717 112° Southeast 142 163 1,000  Level Miami Center
Mon 08:59:44 AM 25.7636 -80.2342 123° Southeast 178 205 1,900 1,531 Climbing Miami Center
Mon 09:00:39 AM 25.7333 -80.1828 171° South 245 282 3,500 2,129 Climbing Miami Center
Mon 09:01:17 AM 25.6875 -80.1744 190° South 260 299 5,200 2,571 Climbing Miami Center
Mon 09:02:17 AM 25.6164 -80.1886 197° South 278 320 7,700 2,450 Climbing Miami Center
Mon 09:03:17 AM 25.5406 -80.2142 204° Southwest 284 327 10,100 1,900 Climbing Miami Center
Mon 09:04:17 AM 25.4561 -80.2556 205° Southwest 302 348 11,500 1,950 Climbing Miami Center
Mon 09:05:17 AM 25.3692 -80.3014 207° Southwest 328 377 14,000 2,400 Climbing Miami Center
Mon 09:06:17 AM 25.2847 -80.3497 215° Southwest 339 390 16,300 2,000 Climbing Miami Center
Mon 09:07:17 AM 25.2036 -80.4117 223° Southwest 353 406 18,000 1,700 Climbing Miami Center
Mon 09:08:17 AM 25.1289 -80.4875 221° Southwest 364 419 19,700 1,700 Climbing Miami Center
Mon 09:09:17 AM 25.0497 -80.5631 221° Southwest 375 432 21,400 1,600 Climbing Miami Center
Mon 09:10:17 AM 24.9683 -80.6408 221° Southwest 375 432 22,900 1,500 Climbing Miami Center
Mon 09:11:17 AM 24.8869 -80.7183 224° Southwest 380 437 24,400 1,350 Climbing Miami Center
Mon 09:12:17 AM 24.8075 -80.8028 221° Southwest 390 449 25,600 1,100 Climbing Miami Center
Mon 09:13:17 AM 24.7239 -80.8825 221° Southwest 397 457 26,600 900 Climbing Miami Center
Mon 09:14:17 AM 24.6486 -80.9556 221° Southwest 397 457 27,400 850 Climbing Miami Center
Mon 09:15:17 AM 24.5628 -81.0372 221° Southwest 397 457 28,300 900 Climbing Miami Center
Mon 09:16:17 AM 24.4747 -81.1208 195° South 408 470 29,200 850 Climbing Miami Center
Mon 09:17:17 AM 24.3569 -81.1558 188° South 415 478 30,000 800 Climbing Miami Center
Mon 09:18:17 AM 24.2372 -81.1744 190° South 421 484 30,800 500 Climbing Miami Center
Mon 09:19:17 AM 24.1133 -81.1975 195° South 434 499 31,000 100 Climbing Miami Center
Mon 09:20:17 AM 23.9869 -81.2339 194° South 454 522 31,000  Level Miami Center
Mon 09:27:32 AM 23.1566 -81.4609 194° South  Level FlightAware Approximate
Mon 09:28:32 AM 23.0421 -81.4919 194° South  Level FlightAware Approximate
Mon 09:29:32 AM 22.9275 -81.5230 194° South  Level FlightAware Approximate
Mon 09:30:32 AM 22.8130 -81.5539 194° South  Level FlightAware Approximate
Mon 09:31:32 AM 22.6984 -81.5849 194° South  Level FlightAware Approximate
Mon 09:32:32 AM 22.5838 -81.6157 194° South  Level FlightAware Approximate
Mon 09:33:32 AM 22.4692 -81.6466 194° South  Level FlightAware Approximate
Mon 09:34:32 AM 22.3546 -81.6773 194° South  Level FlightAware Approximate
Mon 09:35:32 AM 22.2400 -81.7081 194° South  Level FlightAware Approximate
Mon 09:36:32 AM 22.1255 -81.7387 194° South  Level FlightAware Approximate
Mon 09:37:32 AM 22.0109 -81.7693 194° South  Level FlightAware Approximate
Mon 09:38:32 AM 21.8962 -81.7999 194° South  Level FlightAware Approximate
Mon 09:39:32 AM 21.7816 -81.8304 194° South  Level FlightAware Approximate
Mon 09:40:32 AM 21.6670 -81.8609 194° South  Level FlightAware Approximate
Mon 09:41:32 AM 21.5524 -81.8913 194° South  Level FlightAware Approximate
Mon 09:42:32 AM 21.4377 -81.9217 194° South  Level FlightAware Approximate
Mon 09:43:32 AM 21.3231 -81.9520 194° South  Level FlightAware Approximate
Mon 09:44:32 AM 21.2085 -81.9823 194° South  Level FlightAware Approximate
Mon 09:45:32 AM 21.0938 -82.0125 194° South  Level FlightAware Approximate
Mon 09:46:32 AM 20.9792 -82.0427 194° South  Level FlightAware Approximate
Mon 09:47:32 AM 20.8645 -82.0729 194° South  Level FlightAware Approximate
Mon 09:48:32 AM 20.7498 -82.1030 194° South  Level FlightAware Approximate
Mon 09:49:32 AM 20.6352 -82.1330 194° South  Level FlightAware Approximate
Mon 09:50:32 AM 20.5205 -82.1630 194° South  Level FlightAware Approximate
Mon 09:51:32 AM 20.4058 -82.1930 194° South  Level FlightAware Approximate
Mon 09:52:32 AM 20.2911 -82.2229 194° South  Level FlightAware Approximate
Mon 09:53:32 AM 20.1764 -82.2528 194° South  Level FlightAware Approximate
Mon 09:54:32 AM 20.0617 -82.2826 194° South  Level FlightAware Approximate
Mon 09:55:32 AM 19.9470 -82.3124 194° South  Level FlightAware Approximate
Mon 09:56:32 AM 19.8323 -82.3421 194° South  Level FlightAware Approximate
Mon 09:57:32 AM 19.7176 -82.3718 194° South  Level FlightAware Approximate
Mon 09:58:32 AM 19.6029 -82.4015 194° South  Level FlightAware Approximate
Mon 09:59:32 AM 19.4882 -82.4311 193° South  Level FlightAware Approximate
Mon 10:00:32 AM 19.3730 -82.4585 193° South  Level FlightAware Approximate
Mon 10:01:32 AM 19.2577 -82.4858 193° South  Level FlightAware Approximate
Mon 10:02:32 AM 19.1425 -82.5131 193° South  Level FlightAware Approximate
Mon 10:03:32 AM 19.0273 -82.5403 193° South  Level FlightAware Approximate
Mon 10:04:32 AM 18.9121 -82.5675 193° South  Level FlightAware Approximate
Mon 10:05:32 AM 18.7968 -82.5947 193° South  Level FlightAware Approximate
Mon 10:06:32 AM 18.6816 -82.6218 193° South  Level FlightAware Approximate
Mon 10:07:32 AM 18.5664 -82.6489 193° South  Level FlightAware Approximate
Mon 10:08:32 AM 18.4511 -82.6760 193° South  Level FlightAware Approximate
Mon 10:09:32 AM 18.3359 -82.7030 193° South  Level FlightAware Approximate
Mon 10:10:32 AM 18.2206 -82.7300 193° South  Level FlightAware Approximate
Mon 10:11:32 AM 18.1054 -82.7570 193° South  Level FlightAware Approximate
Mon 10:12:32 AM 17.9901 -82.7839 193° South  Level FlightAware Approximate
Mon 10:13:32 AM 17.8749 -82.8108 193° South  Level FlightAware Approximate
Mon 10:14:32 AM 17.7596 -82.8376 193° South  Level FlightAware Approximate
Mon 10:15:32 AM 17.6443 -82.8644 192° South  Level FlightAware Approximate
Mon 10:16:32 AM 17.5291 -82.8912 192° South  Level FlightAware Approximate
Mon 10:17:32 AM 17.4138 -82.9180 192° South  Level FlightAware Approximate
Mon 10:18:32 AM 17.2985 -82.9447 192° South  Level FlightAware Approximate
Mon 10:19:32 AM 17.1832 -82.9714 192° South  Level FlightAware Approximate
Mon 10:20:32 AM 17.0679 -82.9980 192° South  Level FlightAware Approximate
Mon 10:21:32 AM 16.9526 -83.0246 192° South  Level FlightAware Approximate
Mon 10:22:32 AM 16.8374 -83.0512 192° South  Level FlightAware Approximate
Mon 10:23:32 AM 16.7220 -83.0778 192° South  Level FlightAware Approximate
Mon 10:24:32 AM 16.6068 -83.1043 192° South  Level FlightAware Approximate
Mon 10:25:32 AM 16.4914 -83.1308 192° South  Level FlightAware Approximate
Mon 10:26:32 AM 16.3761 -83.1572 192° South  Level FlightAware Approximate
Mon 10:27:32 AM 16.2608 -83.1836 192° South  Level FlightAware Approximate
Mon 10:28:32 AM 16.1455 -83.2100 192° South  Level FlightAware Approximate
Mon 10:29:32 AM 16.0302 -83.2364 192° South  Level FlightAware Approximate
Mon 10:30:32 AM 15.9148 -83.2625 192° South  Level FlightAware Approximate
Mon 10:31:32 AM 15.7995 -83.2886 192° South  Level FlightAware Approximate
Mon 10:32:32 AM 15.6841 -83.3146 192° South  Level FlightAware Approximate
Mon 10:33:32 AM 15.5687 -83.3406 192° South  Level FlightAware Approximate
Mon 10:34:32 AM 15.4533 -83.3666 192° South  Level FlightAware Approximate
Mon 10:35:32 AM 15.3379 -83.3925 192° South  Level FlightAware Approximate
Mon 10:36:32 AM 15.2226 -83.4185 192° South  Level FlightAware Approximate
Mon 10:37:32 AM 15.1072 -83.4444 192° South  Level FlightAware Approximate
Mon 10:38:32 AM 14.9918 -83.4702 192° South  Level FlightAware Approximate
Mon 10:39:32 AM 14.8764 -83.4961 192° South  Level FlightAware Approximate
Mon 10:40:32 AM 14.7610 -83.5219 192° South  Level FlightAware Approximate
Mon 10:41:32 AM 14.6456 -83.5477 192° South  Level FlightAware Approximate
Mon 10:42:32 AM 14.5302 -83.5734 192° South  Level FlightAware Approximate
Mon 10:43:32 AM 14.4148 -83.5992 192° South  Level FlightAware Approximate
Mon 10:44:32 AM 14.2994 -83.6248 192° South  Level FlightAware Approximate
Mon 10:45:32 AM 14.1840 -83.6505 192° South  Level FlightAware Approximate
Mon 10:46:32 AM 14.0685 -83.6762 199° South  Level FlightAware Approximate
Mon 10:47:32 AM 13.9588 -83.7149 191° South  Level FlightAware Approximate
Mon 10:48:32 AM 13.8430 -83.7385 188° South  Level FlightAware Approximate
Mon 10:49:32 AM 13.7259 -83.7546 188° South  Level FlightAware Approximate
Mon 10:50:32 AM 13.6089 -83.7706 188° South  Level FlightAware Approximate
Mon 10:51:32 AM 13.4919 -83.7867 188° South  Level FlightAware Approximate
Mon 10:52:32 AM 13.3748 -83.8027 188° South  Level FlightAware Approximate
Mon 10:53:32 AM 13.2578 -83.8187 188° South  Level FlightAware Approximate
Mon 10:54:32 AM 13.1408 -83.8347 188° South  Level FlightAware Approximate
Mon 10:55:32 AM 13.0238 -83.8507 188° South  Level FlightAware Approximate
Mon 10:56:32 AM 12.9067 -83.8667 188° South  Level FlightAware Approximate
Mon 10:57:32 AM 12.7897 -83.8827 188° South  Level FlightAware Approximate
Mon 10:58:32 AM 12.6726 -83.8986 243° Southwest  Level FlightAware Approximate
Mon 10:59:32 AM 12.6220 -84.0025 185° South  Level FlightAware Approximate
Mon 11:00:32 AM 12.5045 -84.0140 185° South  Level FlightAware Approximate
Mon 11:01:32 AM 12.3869 -84.0255 185° South  Level FlightAware Approximate
Mon 11:02:32 AM 12.2694 -84.0369 185° South  Level FlightAware Approximate
Mon 11:03:32 AM 12.1519 -84.0484 185° South  Level FlightAware Approximate
Mon 11:04:32 AM 12.0344 -84.0598 185° South  Level FlightAware Approximate
Mon 11:05:32 AM 11.9168 -84.0713 185° South  Level FlightAware Approximate
Mon 11:06:32 AM 11.7993 -84.0827 185° South  Level FlightAware Approximate
Mon 11:07:32 AM 11.6817 -84.0941 185° South  Level FlightAware Approximate
Mon 11:08:32 AM 11.5642 -84.1055 185° South  Level FlightAware Approximate
Mon 11:09:32 AM 11.4467 -84.1169 185° South  Level FlightAware Approximate
Mon 11:10:32 AM 11.3291 -84.1283 185° South  Level FlightAware Approximate
Mon 11:11:32 AM 11.2116 -84.1397 185° South  Level FlightAware Approximate
Mon 11:12:32 AM 11.0940 -84.1510 185° South  Level FlightAware Approximate
Mon 11:13:32 AM 10.9765 -84.1624 185° South  Level FlightAware Approximate
Mon 11:14:32 AM 10.8590 -84.1737 185° South  Level FlightAware Approximate
Mon 11:15:32 AM 10.7414 -84.1851 185° South  Level FlightAware Approximate
Mon 11:16:32 AM 10.6239 -84.1964 185° South  Level FlightAware Approximate
Mon 11:17:32 AM 10.5063 -84.2077 185° South  Level FlightAware Approximate
Mon 11:18:32 AM 10.3888 -84.2190 185° South  Level FlightAware Approximate
Mon 11:19:32 AM 10.2713 -84.2303 185° South  Level FlightAware Approximate
Mon 11:20:32 AM 10.1537 -84.2416 177° South  Level FlightAware Approximate
Mon 11:21:32 AM 10.0392 -84.2363 149° Southeast  Level FlightAware Approximate
Mon 11:22:32 AM 9.9378 -84.1749 327° Northwest  Level Estimated
Mon 11:23:32 AM 10.0000 -84.2167 128° Southeast  Level FlightAware Approximate
Mon 11:24:32 AM 9.9266 -84.1227 308° West  Level Estimated
Mon 11:25:32 AM 10.0000 -84.2167 128° Southeast  Level FlightAware Approximate
Mon 11:26:32 AM 9.9266 -84.1227 308° West  Level Estimated
Mon 11:27:32 AM 10.0000 -84.2167 128° Southeast  Level FlightAware Approximate
Mon 11:28:32 AM 9.9266 -84.1227 308° West  Level Estimated
Mon 11:29:32 AM 10.0000 -84.2167 128° Southeast  Level FlightAware Approximate
Mon 11:30:32 AM 9.9266 -84.1227 308° West  Level Estimated
Mon 11:31:32 AM 10.0000 -84.2167 128° Southeast  Level FlightAware Approximate
Mon 11:32:32 AM 9.9266 -84.1227 308° West  Level Estimated
Mon 11:33:32 AM 10.0000 -84.2167 308° West  Level FlightAware Approximate

Login

Don't have an account? Register now (free) for customized features, flight alerts, and more!